Time;durP1;ratioP1;P1;durP2;ratioP2;P2;SDS_P1;SDS_P2;PMS_P1;PMS_P2;Temp;Humidity;BMP_temperature;BMP_pressure;BME280_temperature;BME280_humidity;BME280_pressure;Samples;Min_cycle;Max_cycle;Signal;HPM_P1;HPM_P2
2022/07/11 00:01:49;;;;;;;3.20;2.90;;;19.40;90.90;;;19.71;100.00;101178.53;4978030;28;20042;-75
2022/07/11 00:04:16;;;;;;;4.22;3.00;;;19.50;91.10;;;19.73;100.00;101183.81;4981489;28;20034;-75
2022/07/11 00:06:43;;;;;;;3.72;3.22;;;19.50;91.00;;;19.55;100.00;101184.63;4982334;28;20057;-75
2022/07/11 00:09:10;;;;;;;5.85;2.78;;;19.50;91.20;;;19.51;100.00;101183.06;4985296;28;20076;-75
2022/07/11 00:11:37;;;;;;;3.75;2.80;;;19.40;91.20;;;19.50;100.00;101178.66;4986311;28;20042;-76
2022/07/11 00:14:04;;;;;;;3.33;2.97;;;19.40;91.20;;;19.48;100.00;101177.00;4985049;28;20414;-75
2022/07/11 00:16:31;;;;;;;4.80;2.90;;;19.30;91.30;;;19.50;100.00;101180.47;4980247;28;20557;-75
2022/07/11 00:18:58;;;;;;;4.25;2.97;;;19.30;91.40;;;19.51;100.00;101177.72;4979719;28;20120;-76
2022/07/11 00:21:25;;;;;;;4.65;3.03;;;19.40;91.50;;;19.48;100.00;101169.88;4984946;28;20049;-74
2022/07/11 00:23:52;;;;;;;3.65;3.05;;;19.30;91.60;;;19.53;100.00;101169.66;4960757;28;20155;-75
2022/07/11 00:26:19;;;;;;;4.22;3.25;;;19.40;91.70;;;19.49;100.00;101173.41;4967243;28;20049;-74
2022/07/11 00:28:46;;;;;;;4.55;3.30;;;19.40;91.70;;;19.48;100.00;101167.22;4982493;28;20051;-74
2022/07/11 00:31:13;;;;;;;5.80;3.60;;;19.30;91.90;;;19.54;100.00;101158.03;4968117;28;20699;-75
2022/07/11 00:33:40;;;;;;;4.10;3.70;;;19.40;91.80;;;19.55;100.00;101165.09;4966484;28;20129;-75
2022/07/11 00:36:08;;;;;;;5.03;3.40;;;19.40;91.90;;;19.59;100.00;101160.47;4968262;28;20118;-75
2022/07/11 00:38:35;;;;;;;3.95;3.10;;;19.40;91.90;;;19.49;100.00;101166.25;4968044;28;20062;-76
2022/07/11 00:41:02;;;;;;;4.05;3.65;;;19.40;92.00;;;19.47;100.00;101165.47;4966301;28;20508;-75
2022/07/11 00:43:35;;;;;;;5.88;3.40;;;19.40;92.10;;;19.45;100.00;101156.69;4967374;28;20047;-76
2022/07/11 00:46:07;;;;;;;6.20;3.58;;;19.30;92.10;;;19.46;100.00;101155.75;4967104;28;20413;-76
2022/07/11 00:48:36;;;;;;;4.68;3.40;;;19.30;92.30;;;19.43;100.00;101158.53;4969976;28;20046;-76
2022/07/11 00:51:04;;;;;;;4.15;3.20;;;19.20;92.40;;;19.33;100.00;101144.78;4969987;28;20069;-75
2022/07/11 00:53:34;;;;;;;4.25;3.50;;;19.30;92.50;;;19.41;100.00;101149.75;4979074;28;20038;-75
2022/07/11 00:56:02;;;;;;;3.67;3.28;;;19.20;92.40;;;19.37;100.00;101142.84;4990404;28;20050;-76
2022/07/11 00:58:30;;;;;;;4.53;3.28;;;19.30;92.60;;;19.39;100.00;101151.63;4989743;28;20049;-76
2022/07/11 01:00:57;;;;;;;4.75;3.63;;;19.20;92.60;;;19.40;100.00;101148.91;4990730;28;20410;-75
2022/07/11 01:03:24;;;;;;;3.33;2.90;;;19.20;92.60;;;19.35;100.00;101152.72;4989213;28;20038;-75
2022/07/11 01:05:51;;;;;;;4.65;3.15;;;19.20;92.70;;;19.42;100.00;101155.03;4991346;28;20054;-74
2022/07/11 01:08:19;;;;;;;3.95;3.15;;;19.20;92.60;;;19.33;100.00;101146.59;4991216;28;20042;-75
2022/07/11 01:10:46;;;;;;;5.22;3.03;;;19.20;92.80;;;19.26;100.00;101154.88;5005038;28;20571;-75
2022/07/11 01:13:13;;;;;;;3.53;3.22;;;19.20;92.80;;;19.21;100.00;101151.59;4989380;28;20049;-75
2022/07/11 01:15:40;;;;;;;3.55;3.25;;;19.10;92.90;;;19.19;100.00;101139.25;4986143;28;20066;-74
2022/07/11 01:18:07;;;;;;;4.20;3.13;;;19.10;92.90;;;19.13;100.00;101145.78;4987777;28;20687;-74
2022/07/11 01:20:34;;;;;;;16.50;3.95;;;19.10;92.90;;;19.11;100.00;101142.28;4975830;28;20070;-75
2022/07/11 01:23:07;;;;;;;4.80;3.70;;;19.00;92.90;;;19.05;100.00;101135.47;4988813;28;20057;-75
2022/07/11 01:25:34;;;;;;;5.40;3.15;;;19.00;93.10;;;19.01;100.00;101141.88;4988942;28;20422;-75
2022/07/11 01:28:06;;;;;;;3.58;3.10;;;18.90;93.00;;;18.97;100.00;101138.47;4989825;28;20034;-75
2022/07/11 01:30:33;;;;;;;3.47;3.17;;;18.90;93.30;;;18.92;100.00;101128.94;4988731;28;20447;-75
2022/07/11 01:33:01;;;;;;;4.88;3.17;;;18.90;93.50;;;18.77;100.00;101134.06;4989313;28;20046;-75
2022/07/11 01:35:29;;;;;;;3.35;2.85;;;18.80;93.70;;;18.77;100.00;101135.84;4989155;28;20061;-75
2022/07/11 01:37:56;;;;;;;4.43;3.15;;;18.70;93.60;;;18.70;100.00;101135.25;4989333;28;20070;-75
2022/07/11 01:40:29;;;;;;;5.65;3.58;;;18.70;93.80;;;18.65;100.00;101132.81;4989755;28;20120;-75
2022/07/11 01:42:56;;;;;;;3.88;3.10;;;18.60;94.00;;;18.60;100.00;101132.16;4972927;28;20667;-75
2022/07/11 01:45:23;;;;;;;3.85;3.45;;;18.60;94.10;;;18.56;100.00;101139.41;4988499;28;20494;-75
2022/07/11 01:47:50;;;;;;;6.38;3.33;;;18.50;94.20;;;18.46;100.00;101135.47;4988838;28;20451;-75
2022/07/11 01:50:17;;;;;;;4.35;3.28;;;18.50;94.40;;;18.40;100.00;101131.28;4987992;28;20047;-75
2022/07/11 01:52:44;;;;;;;3.47;2.88;;;18.40;94.30;;;18.36;100.00;101131.47;4989657;28;20675;-75
2022/07/11 01:55:12;;;;;;;4.07;2.88;;;18.50;94.70;;;18.28;100.00;101139.81;4972482;28;20411;-75
2022/07/11 01:57:39;;;;;;;3.60;3.30;;;18.30;94.90;;;18.25;100.00;101138.13;4989102;28;20046;-76
2022/07/11 02:00:10;;;;;;;3.25;2.95;;;18.30;95.00;;;18.21;100.00;101144.53;4988943;28;20053;-75
2022/07/11 02:02:38;;;;;;;3.92;3.28;;;18.30;95.10;;;18.16;100.00;101138.56;4988369;28;20041;-76
2022/07/11 02:05:05;;;;;;;3.28;2.83;;;18.20;95.30;;;18.18;100.00;101138.47;4988825;28;20074;-75
2022/07/11 02:10:18;;;;;;;6.75;3.47;;;18.20;95.40;;;18.18;100.00;101136.69;4988278;28;20052;-75
2022/07/11 02:12:45;;;;;;;3.33;3.03;;;18.10;95.30;;;18.23;100.00;101131.16;4986364;28;20062;-75
2022/07/11 02:15:13;;;;;;;5.57;3.17;;;18.10;95.10;;;18.29;100.00;101133.53;4987394;28;20046;-75
2022/07/11 02:17:40;;;;;;;4.93;3.22;;;18.20;95.10;;;18.24;100.00;101136.41;4988300;28;20043;-75
2022/07/11 02:20:08;;;;;;;3.33;2.92;;;18.20;95.20;;;18.31;100.00;101131.66;4989265;28;20049;-76
2022/07/11 02:22:40;;;;;;;3.92;3.53;;;18.20;95.00;;;18.23;100.00;101132.00;4989415;28;20042;-75
2022/07/11 02:25:08;;;;;;;7.30;3.33;;;18.20;95.20;;;18.20;100.00;101137.47;4989818;28;20046;-75
2022/07/11 02:27:35;;;;;;;4.32;3.60;;;18.20;95.10;;;18.20;100.00;101134.81;4989436;28;20057;-75
2022/07/11 02:30:02;;;;;;;3.50;3.20;;;18.20;95.00;;;18.25;100.00;101123.97;4988061;28;20053;-75
2022/07/11 02:32:29;;;;;;;4.85;3.08;;;18.10;94.90;;;18.26;100.00;101128.34;4989329;28;20050;-75
2022/07/11 02:34:56;;;;;;;4.28;3.55;;;18.20;95.00;;;18.25;100.00;101138.13;4987816;28;20054;-75
2022/07/11 02:37:23;;;;;;;3.78;3.20;;;18.10;95.00;;;18.31;100.00;101131.66;4989872;28;20045;-75
2022/07/11 02:39:50;;;;;;;5.25;3.80;;;18.10;95.00;;;18.25;100.00;101137.28;4988709;28;20194;-74
2022/07/11 02:42:18;;;;;;;4.75;3.83;;;18.10;95.30;;;18.30;100.00;101129.09;4988053;28;20047;-74
2022/07/11 02:44:46;;;;;;;4.97;3.80;;;18.20;95.40;;;18.35;100.00;101127.97;4988024;28;20279;-74
2022/07/11 02:47:14;;;;;;;4.90;3.65;;;18.20;95.20;;;18.21;100.00;101133.88;4989156;28;20050;-74
2022/07/11 02:49:41;;;;;;;5.10;3.85;;;18.20;95.10;;;18.26;100.00;101125.69;4970090;28;20042;-74
2022/07/11 02:52:09;;;;;;;4.45;3.63;;;18.10;95.30;;;18.22;100.00;101140.09;4986067;28;20097;-75
2022/07/11 02:54:36;;;;;;;7.45;3.20;;;18.50;95.90;;;18.18;100.00;101136.69;4979492;28;20053;-75
2022/07/11 02:57:03;;;;;;;4.78;3.35;;;18.10;95.50;;;18.19;100.00;101138.41;4970837;28;20047;-73
2022/07/11 02:59:30;;;;;;;2.90;2.70;;;18.10;95.60;;;18.17;100.00;101134.06;4969014;28;20544;-75
2022/07/11 03:01:57;;;;;;;4.22;3.38;;;18.10;95.60;;;18.15;100.00;101136.81;4967451;28;20543;-75
2022/07/11 03:04:24;;;;;;;4.40;3.50;;;18.20;95.60;;;18.25;100.00;101135.47;4967195;28;20061;-75
2022/07/11 03:06:52;;;;;;;4.93;4.28;;;18.10;96.70;;;18.30;100.00;101127.28;4967466;28;20054;-75
2022/07/11 03:09:19;;;;;;;4.95;4.40;;;18.10;96.50;;;18.26;100.00;101133.69;4967185;28;20538;-76
2022/07/11 03:11:46;;;;;;;5.00;3.90;;;18.20;97.00;;;18.25;100.00;101138.13;4966548;28;20061;-75
2022/07/11 03:14:13;;;;;;;4.45;4.05;;;18.20;96.90;;;18.25;100.00;101135.47;4968570;28;20054;-75
2022/07/11 03:16:40;;;;;;;4.70;4.30;;;18.10;97.40;;;18.31;100.00;101138.81;4976205;28;20482;-76
2022/07/11 03:19:07;;;;;;;4.60;4.20;;;18.10;97.20;;;18.32;100.00;101130.72;4969373;28;20050;-75
2022/07/11 03:21:34;;;;;;;7.35;4.30;;;18.10;97.00;;;18.27;100.00;101141.63;4981152;28;20051;-75
2022/07/11 03:24:01;;;;;;;4.85;4.22;;;18.20;97.00;;;18.24;100.00;101138.22;4969128;28;20550;-75
2022/07/11 03:26:28;;;;;;;8.48;4.43;;;18.20;96.90;;;18.25;100.00;101137.28;4967630;28;20047;-76
2022/07/11 03:28:55;;;;;;;5.50;4.80;;;18.20;96.70;;;18.27;100.00;101124.75;4968612;28;20054;-76
2022/07/11 03:31:22;;;;;;;4.63;4.22;;;18.20;96.70;;;18.27;100.00;101138.06;4968329;28;20511;-76
2022/07/11 03:33:49;;;;;;;5.05;4.55;;;18.10;96.60;;;18.23;100.00;101139.16;4968580;28;20133;-76
2022/07/11 03:36:16;;;;;;;4.60;4.10;;;18.20;96.50;;;18.16;100.00;101133.22;4967471;28;20137;-75
2022/07/11 03:38:43;;;;;;;5.38;4.28;;;18.10;96.70;;;18.20;100.00;101144.63;4951812;28;20042;-75
2022/07/11 03:41:10;;;;;;;4.82;4.32;;;18.10;96.80;;;18.19;100.00;101142.88;4985322;28;20045;-75
2022/07/11 03:43:38;;;;;;;6.30;4.38;;;18.10;96.70;;;18.16;100.00;101146.53;5002698;28;20590;-75
2022/07/11 03:46:06;;;;;;;4.70;4.20;;;18.30;97.00;;;18.13;100.00;101133.38;4988234;28;20058;-76
2022/07/11 03:48:33;;;;;;;4.97;3.85;;;18.00;96.70;;;18.20;100.00;101141.97;4986694;28;20054;-75
2022/07/11 03:51:00;;;;;;;5.22;4.15;;;18.00;96.70;;;18.19;100.00;101141.06;4987463;28;20042;-76
2022/07/11 03:53:27;;;;;;;7.38;4.18;;;18.00;96.70;;;18.19;100.00;101138.41;4985905;28;20048;-76
2022/07/11 03:55:54;;;;;;;5.90;4.32;;;18.10;96.70;;;18.15;100.00;101134.16;4968970;28;20047;-75
2022/07/11 03:58:21;;;;;;;5.55;4.60;;;18.00;96.70;;;18.18;100.00;101131.34;4967216;28;20046;-75
2022/07/11 04:00:49;;;;;;;4.78;3.75;;;18.10;96.60;;;18.19;100.00;101134.91;4965874;28;20055;-75
2022/07/11 04:03:16;;;;;;;6.35;4.85;;;18.00;96.60;;;18.10;100.00;101130.81;4967810;28;20050;-75
2022/07/11 04:05:43;;;;;;;4.60;4.10;;;18.00;96.60;;;18.15;100.00;101136.81;4968898;28;20047;-75
2022/07/11 04:08:10;;;;;;;5.72;4.32;;;18.00;96.40;;;18.17;100.00;101131.41;4968728;28;20057;-75
2022/07/11 04:10:37;;;;;;;5.00;4.43;;;18.00;96.50;;;18.12;100.00;101131.63;4966733;28;20050;-76
2022/07/11 04:13:04;;;;;;;5.90;4.30;;;18.00;96.50;;;18.12;100.00;101131.63;4981630;28;20510;-76
2022/07/11 04:15:31;;;;;;;4.10;3.70;;;18.50;96.70;;;18.10;100.00;101129.03;4978889;28;20054;-75
2022/07/11 04:17:57;;;;;;;4.55;4.15;;;18.00;96.90;;;18.12;100.00;101131.63;4966618;28;20039;-74
2022/07/11 04:20:25;;;;;;;4.32;3.95;;;18.00;97.10;;;18.13;100.00;101138.69;4987637;28;20538;-75
2022/07/11 04:22:52;;;;;;;4.20;3.80;;;18.00;97.20;;;18.16;100.00;101132.34;4988691;28;20038;-76
2022/07/11 04:25:19;;;;;;;5.57;4.07;;;18.00;97.10;;;18.12;100.00;101135.16;4990690;28;20049;-76
2022/07/11 04:27:46;;;;;;;5.10;4.43;;;18.00;97.30;;;18.20;100.00;101136.63;4991205;28;20112;-77
2022/07/11 04:30:13;;;;;;;4.00;3.70;;;18.00;96.90;;;18.25;100.00;101132.81;4973727;28;20046;-76
2022/07/11 04:32:40;;;;;;;5.88;4.30;;;18.00;96.90;;;18.18;100.00;101130.47;4980203;28;20422;-76
2022/07/11 04:35:08;;;;;;;4.78;4.28;;;18.00;96.90;;;18.21;100.00;101127.69;4988482;28;20053;-75
2022/07/11 04:37:34;;;;;;;5.28;4.57;;;18.10;96.80;;;18.19;100.00;101126.91;4988494;28;20389;-75
2022/07/11 04:40:02;;;;;;;6.00;4.32;;;18.00;96.90;;;18.26;100.00;101128.34;4984551;28;20046;-74
2022/07/11 04:42:29;;;;;;;5.93;4.60;;;18.10;97.30;;;18.25;100.00;101135.47;4987168;28;20046;-74
2022/07/11 04:44:56;;;;;;;5.00;4.50;;;18.10;97.20;;;18.27;100.00;101130.97;4990235;28;20676;-76
2022/07/11 04:47:23;;;;;;;5.32;4.57;;;18.10;97.30;;;18.27;100.00;101130.97;4990750;28;20543;-73
2022/07/11 04:49:51;;;;;;;5.55;4.93;;;18.10;97.60;;;18.20;100.00;101133.97;4976300;28;20042;-78
2022/07/11 04:52:18;;;;;;;4.95;4.47;;;18.10;97.40;;;18.15;100.00;101134.16;4985553;28;20407;-78
2022/07/11 04:54:45;;;;;;;5.90;5.03;;;18.20;97.30;;;18.19;100.00;101132.25;4979486;28;20049;-78
2022/07/11 04:57:12;;;;;;;5.80;4.32;;;18.40;97.50;;;18.15;100.00;101131.50;4988454;28;20042;-79
2022/07/11 04:59:39;;;;;;;4.90;4.40;;;18.20;97.30;;;18.19;100.00;101134.91;4975942;28;20101;-78
2022/07/11 05:02:06;;;;;;;4.50;4.10;;;18.20;97.30;;;18.24;100.00;101133.75;4988370;28;20057;-78
2022/07/11 05:04:33;;;;;;;9.00;5.20;;;18.20;97.20;;;18.27;100.00;101138.97;4984708;28;20053;-77
2022/07/11 05:07:00;;;;;;;5.05;4.32;;;18.20;97.00;;;18.37;100.00;101135.88;4991885;28;20491;-78
2022/07/11 05:09:27;;;;;;;4.50;4.05;;;18.20;97.10;;;18.42;100.00;101140.06;4988688;28;20052;-77
2022/07/11 05:11:54;;;;;;;6.78;4.32;;;18.30;97.10;;;18.55;100.00;101139.50;4994697;28;20046;-76
2022/07/11 05:14:22;;;;;;;5.13;4.20;;;18.30;96.90;;;18.56;100.00;101141.25;4977566;28;20047;-76
2022/07/11 05:16:49;;;;;;;6.03;4.20;;;18.30;96.90;;;18.55;100.00;101143.03;4982240;28;20039;-77
2022/07/11 05:19:16;;;;;;;4.72;4.30;;;18.40;96.80;;;18.61;100.00;101141.03;4957538;28;20038;-77
2022/07/11 05:21:43;;;;;;;4.95;4.45;;;18.30;96.90;;;18.68;100.00;101139.81;4973276;28;20050;-76
2022/07/11 05:24:10;;;;;;;4.57;4.07;;;18.40;96.90;;;18.73;100.00;101139.59;4957100;28;20050;-77
2022/07/11 05:26:37;;;;;;;5.22;4.25;;;18.50;96.90;;;18.79;100.00;101144.63;4974343;28;20043;-77
2022/07/11 05:29:04;;;;;;;5.97;4.22;;;18.50;96.90;;;18.84;100.00;101145.31;4956513;28;20057;-77
2022/07/11 05:31:33;;;;;;;11.85;4.00;;;18.60;96.90;;;18.90;100.00;101137.00;4972370;28;20055;-77
2022/07/11 05:34:00;;;;;;;5.25;4.25;;;18.60;96.70;;;18.99;100.00;101141.97;4971827;28;20496;-76
2022/07/11 05:36:27;;;;;;;4.65;4.18;;;18.70;96.70;;;19.03;100.00;101148.00;4988576;28;20313;-76
2022/07/11 05:38:54;;;;;;;4.75;4.20;;;18.70;96.60;;;19.04;100.00;101146.19;4975805;28;20057;-76
2022/07/11 05:41:21;;;;;;;4.70;4.25;;;18.80;96.70;;;19.06;100.00;101155.00;4993426;28;20050;-77
2022/07/11 05:43:48;;;;;;;8.07;4.63;;;18.80;96.40;;;19.05;100.00;101155.94;4993051;28;20387;-77
2022/07/11 05:46:15;;;;;;;6.03;4.80;;;18.80;96.60;;;19.14;100.00;101155.50;4991071;28;20047;-77
2022/07/11 05:48:43;;;;;;;5.22;3.90;;;18.90;96.60;;;19.11;100.00;101151.16;4974775;28;20632;-76
2022/07/11 05:51:11;;;;;;;6.25;4.32;;;18.90;96.40;;;19.13;100.00;101154.63;4990175;28;20042;-77
2022/07/11 05:53:38;;;;;;;4.82;3.75;;;18.90;96.30;;;19.25;100.00;101152.31;4991370;28;20090;-76
2022/07/11 05:56:07;;;;;;;4.82;4.25;;;19.00;96.30;;;19.13;100.00;101149.28;4991549;28;20066;-77
2022/07/11 05:58:34;;;;;;;6.18;4.65;;;19.00;96.10;;;19.16;100.00;101147.41;4989323;28;20654;-77
2022/07/11 06:01:01;;;;;;;5.68;4.63;;;19.30;95.90;;;19.18;100.00;101148.19;4982035;28;20192;-77
2022/07/11 06:03:28;;;;;;;6.05;3.90;;;19.10;95.70;;;19.15;100.00;101151.00;4988077;28;20039;-77
2022/07/11 06:05:55;;;;;;;4.80;3.67;;;19.00;95.70;;;19.26;100.00;101159.38;4968092;28;20054;-77
2022/07/11 06:08:40;;;;;;;5.82;4.22;;;19.00;95.60;;;19.27;100.00;101153.09;4982226;28;20042;-77
2022/07/11 06:11:12;;;;;;;4.07;3.67;;;19.00;95.60;;;19.27;100.00;101153.94;4987138;28;20043;-76
2022/07/11 06:13:41;;;;;;;5.03;3.92;;;19.50;95.70;;;19.32;100.00;101155.56;4984919;28;20085;-77
2022/07/11 06:16:09;;;;;;;6.70;3.78;;;19.10;95.50;;;19.44;100.00;101160.31;4991935;28;20035;-77
2022/07/11 06:18:38;;;;;;;5.75;4.20;;;19.10;95.50;;;19.44;100.00;101157.63;5002054;28;20044;-77
2022/07/11 06:21:05;;;;;;;4.20;3.88;;;19.20;95.30;;;19.59;100.00;101152.44;4982018;28;20046;-77
2022/07/11 06:23:34;;;;;;;5.35;3.90;;;19.80;95.50;;;19.64;100.00;101159.28;4983895;28;20125;-77
2022/07/11 06:26:03;;;;;;;5.57;4.20;;;19.30;95.20;;;19.61;100.00;101162.13;4990846;28;20054;-76
2022/07/11 06:28:30;;;;;;;6.80;4.15;;;19.40;95.10;;;19.79;100.00;101157.69;4973275;28;20089;-78
2022/07/11 06:30:57;;;;;;;5.05;3.72;;;19.50;94.90;;;19.77;100.00;101162.22;4974955;28;20177;-78
2022/07/11 06:33:24;;;;;;;4.60;4.10;;;19.60;94.50;;;19.87;100.00;101146.59;4986630;28;20048;-77
2022/07/11 06:35:52;;;;;;;6.15;3.85;;;19.60;94.50;;;19.97;100.00;101161.22;4980122;28;20074;-77
2022/07/11 06:38:19;;;;;;;7.20;4.00;;;19.70;94.50;;;19.98;100.00;101157.66;4986715;28;20049;-77
2022/07/11 06:40:47;;;;;;;5.97;3.78;;;19.70;94.40;;;20.01;100.00;101163.78;4988311;28;20063;-77
2022/07/11 06:43:14;;;;;;;6.65;3.75;;;19.70;94.30;;;19.98;100.00;101160.31;4970244;28;20047;-78
2022/07/11 06:45:42;;;;;;;4.03;3.63;;;19.80;94.20;;;20.19;100.00;101149.47;4970739;28;20571;-77
2022/07/11 06:48:09;;;;;;;4.45;3.35;;;19.80;94.20;;;20.21;100.00;101158.25;4973102;28;20043;-77
2022/07/11 06:50:36;;;;;;;5.35;3.72;;;19.90;94.20;;;20.36;100.00;101159.25;4988693;28;20069;-77
2022/07/11 06:53:03;;;;;;;5.28;3.28;;;20.00;94.00;;;20.42;100.00;101163.41;4965659;28;20081;-77
2022/07/11 06:55:32;;;;;;;6.38;3.58;;;20.00;93.80;;;20.44;100.00;101155.31;4976890;28;20754;-77
2022/07/11 06:58:00;;;;;;;5.68;3.67;;;20.20;93.80;;;20.43;100.00;101159.78;4981737;28;20069;-77
2022/07/11 07:00:47;;;;;;;7.70;5.10;;;20.20;93.80;;;20.33;100.00;101156.72;4993633;28;20421;-78
2022/07/11 07:03:14;;;;;;;6.65;4.30;;;20.20;93.50;;;20.40;100.00;101149.25;4991679;28;20050;-77
2022/07/11 07:05:46;;;;;;;4.65;3.80;;;20.20;93.50;;;20.49;100.00;101142.56;4993611;28;20112;-77
2022/07/11 07:08:13;;;;;;;6.35;3.80;;;20.20;93.50;;;20.46;100.00;101142.72;4999688;28;20048;-77
2022/07/11 07:10:40;;;;;;;4.32;3.92;;;20.20;93.40;;;20.35;100.00;101143.31;4986917;28;20042;-78
2022/07/11 07:13:07;;;;;;;4.40;3.90;;;20.30;93.50;;;20.20;100.00;101139.63;4987584;28;20046;-77
2022/07/11 07:15:34;;;;;;;4.78;3.25;;;20.20;93.30;;;20.32;100.00;101143.47;4994981;28;20093;-78
2022/07/11 07:18:01;;;;;;;4.60;3.75;;;20.20;93.40;;;20.27;100.00;101151.72;4994211;28;20053;-77
2022/07/11 07:20:30;;;;;;;6.00;4.05;;;20.10;93.40;;;20.25;100.00;101148.28;4995138;28;20050;-78
2022/07/11 07:22:58;;;;;;;6.18;4.35;;;20.20;93.40;;;20.24;100.00;101147.41;4978446;28;20415;-78
2022/07/11 07:25:26;;;;;;;4.90;3.63;;;20.20;93.30;;;20.40;100.00;101142.13;4976469;28;20046;-77
2022/07/11 07:27:53;;;;;;;5.38;4.78;;;20.20;93.60;;;20.32;100.00;101147.00;4990723;28;20070;-77
2022/07/11 07:30:20;;;;;;;6.60;4.47;;;20.10;93.20;;;20.41;100.00;101145.63;4975451;28;20519;-78
2022/07/11 07:32:47;;;;;;;6.30;4.05;;;20.20;93.40;;;20.41;100.00;101145.63;4991556;28;20046;-77
2022/07/11 07:35:14;;;;;;;6.85;4.85;;;20.20;93.30;;;20.37;100.00;101152.97;4976173;28;20539;-77
2022/07/11 07:37:41;;;;;;;7.88;4.65;;;20.20;93.30;;;20.30;100.00;101142.69;4992295;28;20050;-78
2022/07/11 07:40:09;;;;;;;4.95;3.80;;;20.20;93.20;;;20.37;100.00;101142.28;4975596;28;20116;-77
2022/07/11 07:42:36;;;;;;;5.15;3.85;;;20.20;93.40;;;20.53;100.00;101146.81;4989860;28;20049;-77
2022/07/11 07:45:11;;;;;;;5.18;3.75;;;20.20;93.60;;;20.67;100.00;101156.75;4973179;28;20047;-77
2022/07/11 07:47:38;;;;;;;7.13;3.90;;;20.30;93.60;;;20.73;100.00;101145.72;4988202;28;20249;-77
2022/07/11 07:50:06;;;;;;;6.50;3.42;;;20.40;93.60;;;20.77;100.00;101144.63;4971664;28;20046;-77
2022/07/11 07:52:33;;;;;;;12.18;3.35;;;20.40;93.40;;;20.86;100.00;101143.28;5004450;28;20145;-77
2022/07/11 07:55:00;;;;;;;5.75;3.60;;;20.50;93.50;;;20.90;100.00;101131.47;4988898;28;20085;-77
2022/07/11 07:57:27;;;;;;;5.20;3.28;;;20.60;93.20;;;20.97;100.00;101127.47;4987424;28;20054;-78
2022/07/11 08:01:34;;;;;;;6.32;4.25;;;20.70;93.10;;;20.87;100.00;101139.66;4972299;28;20052;-77
2022/07/11 08:02:41;;;;;;;4.72;3.67;;;20.70;92.80;;;20.95;100.00;101137.41;4985279;28;20080;-77
2022/07/11 08:05:09;;;;;;;4.40;3.95;;;20.70;92.80;;;21.07;100.00;101137.69;4972921;28;20062;-77
2022/07/11 08:07:36;;;;;;;6.25;3.85;;;20.70;93.00;;;21.07;100.00;101129.66;4989177;28;20061;-77
2022/07/11 08:10:07;;;;;;;5.70;4.03;;;20.80;92.90;;;21.11;100.00;101139.22;4972843;28;20038;-77
2022/07/11 08:12:34;;;;;;;6.22;3.92;;;20.80;92.60;;;21.03;100.00;101128.94;4995197;28;20395;-78
2022/07/11 08:15:01;;;;;;;6.88;3.05;;;20.80;92.70;;;21.14;100.00;101127.50;4974461;28;20074;-78
2022/07/11 08:17:29;;;;;;;5.50;3.50;;;20.90;92.70;;;21.11;100.00;101139.22;5000919;28;20092;-78
2022/07/11 08:19:56;;;;;;;5.75;4.00;;;20.90;92.70;;;21.18;100.00;101131.72;4987800;28;20050;-76
2022/07/11 08:22:23;;;;;;;6.05;3.53;;;20.90;92.80;;;21.23;100.00;101125.16;4986597;28;20042;-76
2022/07/11 08:24:50;;;;;;;6.63;3.40;;;20.90;93.00;;;21.39;100.00;101124.28;4986425;28;20398;-76
2022/07/11 08:27:17;;;;;;;6.85;3.17;;;21.00;92.90;;;21.61;100.00;101120.31;4986712;28;20562;-75
2022/07/11 08:30:07;;;;;;;3.95;3.38;;;21.20;92.70;;;21.72;100.00;101125.09;4967382;28;20131;-75
2022/07/11 08:32:41;;;;;;;5.78;4.07;;;21.30;92.80;;;21.80;100.00;101121.03;4982550;28;20122;-75
2022/07/11 08:35:11;;;;;;;6.00;4.15;;;21.40;92.70;;;21.93;100.00;101128.28;4970596;28;20054;-75
2022/07/11 08:37:38;;;;;;;5.57;3.78;;;21.50;92.30;;;22.05;100.00;101130.25;4970595;28;20802;-75
2022/07/11 08:40:06;;;;;;;4.18;3.72;;;21.60;92.20;;;22.21;100.00;101132.88;5003620;28;20078;-76
2022/07/11 08:42:41;;;;;;;6.97;3.30;;;21.70;91.90;;;22.21;100.00;101129.31;4970576;28;20049;-77
2022/07/11 08:45:16;;;;;;;5.68;3.63;;;21.80;91.70;;;22.40;100.00;101126.38;4987189;28;20042;-77
2022/07/11 08:47:44;;;;;;;6.43;3.92;;;21.90;92.00;;;22.55;100.00;101129.06;4968230;28;20416;-76
2022/07/11 08:50:12;;;;;;;4.72;3.63;;;22.10;91.80;;;22.52;100.00;101124.75;4966949;28;20089;-76
2022/07/11 08:52:40;;;;;;;5.45;3.83;;;22.10;91.70;;;22.65;100.00;101125.72;4967698;28;20039;-77
2022/07/11 08:55:08;;;;;;;8.00;3.80;;;22.20;91.30;;;22.75;100.00;101122.47;4967152;28;20038;-75
2022/07/11 08:57:38;;;;;;;7.15;3.20;;;22.30;91.50;;;22.87;100.00;101123.50;4968704;28;20130;-76
2022/07/11 09:00:09;;;;;;;5.85;3.42;;;22.40;91.00;;;22.88;100.00;101114.47;4950433;28;20081;-76
2022/07/11 09:02:36;;;;;;;7.22;3.40;;;22.50;91.20;;;22.93;100.00;101121.28;4966735;28;20098;-76
2022/07/11 09:05:05;;;;;;;3.90;2.70;;;22.60;91.00;;;23.09;100.00;101118.44;4966707;28;20595;-75
2022/07/11 09:07:47;;;;;;;4.65;2.80;;;22.60;90.70;;;23.20;100.00;101112.41;4967452;28;20042;-77
2022/07/11 09:10:16;;;;;;;4.95;3.15;;;22.70;90.80;;;23.33;95.55;101106.22;4969217;28;20098;-75
2022/07/11 09:13:17;;;;;;;4.45;3.38;;;22.90;90.20;;;23.17;96.66;101107.19;4985748;28;20054;-75
2022/07/11 09:15:48;;;;;;;4.57;2.55;;;23.00;90.00;;;23.25;91.61;101108.53;4969109;28;20050;-76
2022/07/11 09:18:39;;;;;;;4.43;2.88;;;23.00;89.10;;;23.20;94.15;101106.16;4958616;28;20050;-76
2022/07/11 09:26:48;;;;;;;3.75;2.67;;;22.90;89.60;;;22.94;95.33;101106.03;4990475;28;20151;-77
2022/07/11 09:29:24;;;;;;;;;;;22.80;89.10;;;23.31;96.49;101114.41;4974736;28;20042;-77
2022/07/11 09:31:52;;;;;;;5.30;2.35;;;22.90;90.00;;;23.46;90.18;101115.19;4967633;28;19961;-78
2022/07/11 09:34:23;;;;;;;2.88;1.70;;;23.00;89.10;;;23.64;89.73;101106.84;4971604;28;20077;-77
2022/07/11 09:36:54;;;;;;;4.03;2.17;;;23.10;88.60;;;23.74;84.82;101112.47;4971833;28;20667;-77
2022/07/11 09:39:27;;;;;;;4.30;1.70;;;23.30;87.60;;;23.83;83.95;101113.69;4970123;28;20122;-77
2022/07/11 09:41:56;;;;;;;2.92;1.60;;;23.40;87.40;;;23.78;86.61;101106.78;4970732;28;20047;-76
2022/07/11 09:44:27;;;;;;;2.65;1.70;;;23.50;87.60;;;23.89;85.77;101115.94;4970676;28;20560;-77
2022/07/11 09:46:58;;;;;;;4.85;1.88;;;23.50;87.30;;;23.93;83.14;101110.25;4966941;28;20473;-77
2022/07/11 09:49:37;;;;;;;3.10;1.83;;;23.60;86.60;;;24.08;83.43;101108.34;4973846;28;20416;-76
2022/07/11 09:52:16;;;;;;;3.58;1.70;;;23.60;86.80;;;24.23;80.39;101094.78;4969880;28;20085;-74
2022/07/11 09:55:00;;;;;;;3.78;2.10;;;23.80;86.30;;;24.38;79.26;101098.25;4952369;28;20473;-76
2022/07/11 09:57:36;;;;;;;3.95;2.25;;;23.90;86.10;;;24.58;77.94;101090.56;4969715;28;20089;-75
2022/07/11 10:00:11;;;;;;;2.63;1.70;;;24.00;85.80;;;24.61;78.02;101106.47;4953372;28;20061;-75
2022/07/11 10:02:38;;;;;;;3.70;2.15;;;24.20;85.60;;;24.49;79.01;101100.16;4969750;28;20074;-74
2022/07/11 10:05:06;;;;;;;2.60;1.75;;;24.20;85.30;;;24.63;79.53;101108.09;4980259;28;20480;-74
2022/07/11 10:07:34;;;;;;;5.32;1.70;;;24.30;85.50;;;24.66;78.86;101114.22;4953905;28;20050;-75
2022/07/11 10:10:06;;;;;;;3.17;2.25;;;24.30;85.20;;;24.54;78.98;101108.75;4970953;28;20702;-75
2022/07/11 10:12:33;;;;;;;4.10;2.10;;;24.40;84.90;;;24.64;78.17;101107.13;4970485;28;20074;-75
2022/07/11 10:15:08;;;;;;;4.65;2.00;;;24.30;84.80;;;24.87;77.06;101109.16;4969295;28;20046;-75
2022/07/11 10:18:02;;;;;;;4.50;2.10;;;24.40;85.20;;;24.76;74.26;101102.72;4967121;28;20061;-76
2022/07/11 10:20:48;;;;;;;5.18;1.80;;;24.50;84.00;;;25.06;76.72;101105.97;4969476;28;20652;-75
2022/07/11 10:23:47;;;;;;;3.65;2.00;;;24.60;84.70;;;25.08;73.68;101105.84;4969646;28;20057;-75